Time;durP1;ratioP1;P1;durP2;ratioP2;P2;SDS_P1;SDS_P2;PMS_P1;PMS_P2;Temp;Humidity;BMP_temperature;BMP_pressure;BME280_temperature;BME280_humidity;BME280_pressure;Samples;Min_cycle;Max_cycle;Signal;HPM_P1;HPM_P2
2022/04/05 00:01:29;;;;;;;0.30;0.20;;;4.20;99.90;;;;;;5066731;28;20538;-85
2022/04/05 00:03:56;;;;;;;0.50;0.37;;;4.20;99.90;;;;;;5063484;28;20794;-85
2022/04/05 00:06:24;;;;;;;0.30;0.20;;;4.10;99.90;;;;;;5060541;28;20548;-85
2022/04/05 00:08:51;;;;;;;0.30;0.10;;;4.10;99.90;;;;;;5060807;28;21233;-85
2022/04/05 00:11:18;;;;;;;1.13;0.77;;;4.10;99.90;;;;;;5066660;28;20456;-88
2022/04/05 00:13:45;;;;;;;0.30;0.17;;;4.10;99.90;;;;;;5066298;28;20432;-87
2022/04/05 00:16:12;;;;;;;0.30;0.10;;;4.10;99.90;;;;;;5064426;28;20505;-85
2022/04/05 00:18:39;;;;;;;0.30;0.10;;;4.10;99.90;;;;;;5063366;28;20460;-86
2022/04/05 00:21:06;;;;;;;0.30;0.10;;;4.10;99.90;;;;;;5068385;28;20928;-85
2022/04/05 00:23:35;;;;;;;0.30;0.10;;;4.10;99.90;;;;;;5067960;28;20483;-85
2022/04/05 00:26:02;;;;;;;0.30;0.20;;;4.10;99.90;;;;;;5070395;28;20443;-84
2022/04/05 00:28:30;;;;;;;1.77;1.67;;;4.10;99.90;;;;;;5065107;28;20979;-85
2022/04/05 00:30:57;;;;;;;0.30;0.20;;;4.10;99.90;;;;;;5068505;28;20439;-85
2022/04/05 00:33:24;;;;;;;0.30;0.20;;;4.10;99.90;;;;;;5067571;28;20468;-85
2022/04/05 00:35:51;;;;;;;0.30;0.20;;;4.10;99.90;;;;;;5064570;28;20467;-86
2022/04/05 00:38:18;;;;;;;0.73;0.73;;;4.10;99.90;;;;;;5068000;28;20472;-83
2022/04/05 00:40:47;;;;;;;0.77;0.77;;;4.10;99.90;;;;;;5057585;28;21257;-85
2022/04/05 00:43:14;;;;;;;0.30;0.10;;;4.00;99.90;;;;;;5069198;28;20471;-83
2022/04/05 00:45:41;;;;;;;0.70;0.27;;;4.10;99.90;;;;;;5068599;28;20456;-84
2022/04/05 00:48:08;;;;;;;0.30;0.10;;;4.10;99.90;;;;;;5066968;28;20455;-86
2022/04/05 00:50:38;;;;;;;0.30;0.30;;;4.00;99.90;;;;;;5069217;28;20487;-84
2022/04/05 00:53:07;;;;;;;0.30;0.10;;;4.00;99.90;;;;;;5068702;28;20521;-87
2022/04/05 00:55:35;;;;;;;0.30;0.10;;;4.10;99.90;;;;;;5058639;28;20459;-88
2022/04/05 00:58:04;;;;;;;0.30;0.20;;;4.10;99.90;;;;;;5061871;28;20772;-85
2022/04/05 01:00:32;;;;;;;0.40;0.27;;;4.10;99.90;;;;;;5068733;28;20443;-85
2022/04/05 01:03:01;;;;;;;0.30;0.10;;;4.10;99.90;;;;;;5066723;28;20892;-85
2022/04/05 01:05:29;;;;;;;0.30;0.10;;;4.10;99.90;;;;;;5062551;28;20559;-85
2022/04/05 01:07:59;;;;;;;0.30;0.10;;;4.10;99.90;;;;;;5064306;28;20492;-88
2022/04/05 01:10:29;;;;;;;0.30;0.10;;;4.10;99.90;;;;;;5069182;28;20447;-84
2022/04/05 01:12:56;;;;;;;0.30;0.10;;;4.00;99.90;;;;;;5068888;28;20451;-88
2022/04/05 01:15:25;;;;;;;0.83;0.47;;;4.10;99.90;;;;;;5058713;28;20525;-86
2022/04/05 01:17:55;;;;;;;0.37;0.20;;;4.10;99.90;;;;;;5069375;28;20440;-85
2022/04/05 01:20:23;;;;;;;0.30;0.10;;;4.10;99.90;;;;;;5065543;28;20475;-88
2022/04/05 01:22:51;;;;;;;0.30;0.20;;;4.10;99.90;;;;;;5064587;28;20485;-87
2022/04/05 01:25:20;;;;;;;0.30;0.10;;;4.00;99.90;;;;;;5069141;28;20462;-85
2022/04/05 01:27:48;;;;;;;0.30;0.10;;;4.00;99.90;;;;;;5069161;28;20487;-85
2022/04/05 01:30:15;;;;;;;0.30;0.20;;;4.00;99.90;;;;;;5061447;28;20514;-86
2022/04/05 01:32:43;;;;;;;0.30;0.20;;;3.90;99.90;;;;;;5069620;28;20439;-88
2022/04/05 01:35:11;;;;;;;0.30;0.10;;;3.90;99.90;;;;;;5063668;28;20460;-87
2022/04/05 01:37:38;;;;;;;0.30;0.10;;;3.80;99.90;;;;;;5066179;28;20503;-87
2022/04/05 01:40:06;;;;;;;0.30;0.10;;;3.80;99.90;;;;;;5065348;28;20452;-86
2022/04/05 01:42:37;;;;;;;0.63;0.63;;;3.80;99.90;;;;;;5073869;28;21055;-86
2022/04/05 01:45:05;;;;;;;0.30;0.20;;;3.80;99.90;;;;;;5074666;28;20985;-85
2022/04/05 01:47:32;;;;;;;2.10;0.37;;;3.70;99.90;;;;;;5076933;28;20470;-85
2022/04/05 01:49:59;;;;;;;0.40;0.40;;;3.80;99.90;;;;;;5072139;28;20467;-87
2022/04/05 01:52:26;;;;;;;0.30;0.10;;;3.80;99.90;;;;;;5077697;28;20452;-86
2022/04/05 01:54:53;;;;;;;0.40;0.23;;;3.80;99.90;;;;;;5071226;28;20466;-86
2022/04/05 01:57:20;;;;;;;0.40;0.23;;;3.80;99.90;;;;;;5081043;28;20440;-85
2022/04/05 01:59:48;;;;;;;0.30;0.10;;;3.80;99.90;;;;;;5065318;28;20471;-85
2022/04/05 02:02:15;;;;;;;0.30;0.10;;;3.90;99.90;;;;;;5064730;28;20479;-84
2022/04/05 02:04:42;;;;;;;0.30;0.10;;;3.90;99.90;;;;;;5070621;28;21184;-86
2022/04/05 02:07:11;;;;;;;0.30;0.10;;;3.90;99.90;;;;;;5070358;28;20529;-85
2022/04/05 02:09:38;;;;;;;0.30;0.10;;;3.90;99.90;;;;;;5071025;28;20474;-84
2022/04/05 02:12:07;;;;;;;0.30;0.10;;;3.90;99.90;;;;;;5067817;28;20444;-86
2022/04/05 02:14:34;;;;;;;0.30;0.10;;;4.00;99.90;;;;;;5065650;28;20444;-87
2022/04/05 02:17:02;;;;;;;0.30;0.10;;;4.00;99.90;;;;;;5062058;28;20520;-86
2022/04/05 02:19:29;;;;;;;0.30;0.10;;;4.00;99.90;;;;;;5066168;28;20854;-86
2022/04/05 02:21:57;;;;;;;0.30;0.20;;;4.00;99.90;;;;;;5060598;28;20461;-85
2022/04/05 02:24:24;;;;;;;0.67;0.67;;;4.00;99.90;;;;;;5061120;28;20539;-88
2022/04/05 02:26:51;;;;;;;0.87;0.67;;;4.00;99.90;;;;;;5059596;28;20456;-86
2022/04/05 02:29:18;;;;;;;0.30;0.10;;;4.00;99.90;;;;;;5060519;28;20500;-87
2022/04/05 02:31:45;;;;;;;0.97;0.53;;;4.00;99.90;;;;;;5057278;28;20506;-88
2022/04/05 02:34:14;;;;;;;0.30;0.20;;;4.00;99.90;;;;;;5062031;28;20460;-85
2022/04/05 02:36:41;;;;;;;0.30;0.10;;;4.00;99.90;;;;;;5063176;28;20589;-86
2022/04/05 02:39:09;;;;;;;0.30;0.10;;;4.00;99.90;;;;;;5065753;28;20459;-86
2022/04/05 02:41:36;;;;;;;0.30;0.10;;;4.00;99.90;;;;;;5069545;28;20438;-85
2022/04/05 02:44:03;;;;;;;0.30;0.10;;;4.00;99.90;;;;;;5069962;28;20480;-86
2022/04/05 02:46:30;;;;;;;0.30;0.10;;;4.00;99.90;;;;;;5067658;28;20509;-87
2022/04/05 02:48:57;;;;;;;0.30;0.10;;;4.00;99.90;;;;;;5061093;28;20455;-88
2022/04/05 02:51:25;;;;;;;0.30;0.10;;;4.00;99.90;;;;;;5071078;28;20914;-85
2022/04/05 02:53:52;;;;;;;0.30;0.17;;;4.00;99.90;;;;;;5069443;28;20455;-87
2022/04/05 02:56:19;;;;;;;0.30;0.10;;;4.00;99.90;;;;;;5075139;28;20505;-86
2022/04/05 02:58:48;;;;;;;0.30;0.10;;;4.00;99.90;;;;;;5073702;28;20448;-86
2022/04/05 03:01:16;;;;;;;0.30;0.20;;;4.00;99.90;;;;;;5074651;28;20443;-88
2022/04/05 03:03:43;;;;;;;0.77;0.20;;;4.00;99.90;;;;;;5070825;28;20503;-85
2022/04/05 03:06:11;;;;;;;0.40;0.40;;;3.90;99.90;;;;;;5068402;28;20509;-86
2022/04/05 03:08:40;;;;;;;0.30;0.20;;;4.00;99.90;;;;;;5066991;28;20482;-86
2022/04/05 03:11:08;;;;;;;0.30;0.10;;;4.00;99.90;;;;;;5068226;28;20467;-85
2022/04/05 03:13:35;;;;;;;0.30;0.20;;;4.00;99.90;;;;;;5073061;28;20515;-87
2022/04/05 03:16:02;;;;;;;0.30;0.10;;;3.90;99.90;;;;;;5074674;28;20505;-88
2022/04/05 03:18:29;;;;;;;0.30;0.10;;;4.00;99.90;;;;;;5068367;28;20464;-88
2022/04/05 03:20:56;;;;;;;0.30;0.17;;;3.90;99.90;;;;;;5074929;28;20528;-85
2022/04/05 03:23:23;;;;;;;0.30;0.10;;;4.00;99.90;;;;;;5073123;28;20532;-86
2022/04/05 03:25:52;;;;;;;0.30;0.30;;;4.00;99.90;;;;;;5070827;28;20456;-86
2022/04/05 03:28:20;;;;;;;0.30;0.10;;;4.00;99.90;;;;;;5073246;28;20470;-87
2022/04/05 03:30:48;;;;;;;0.30;0.10;;;4.00;99.90;;;;;;5072892;28;20450;-88
2022/04/05 03:33:15;;;;;;;0.73;0.73;;;4.00;99.90;;;;;;5072510;28;20534;-86
2022/04/05 03:35:43;;;;;;;0.43;0.43;;;4.10;99.90;;;;;;5067824;28;20444;-83
2022/04/05 03:38:10;;;;;;;0.80;0.80;;;4.10;99.90;;;;;;5067951;28;20512;-86
2022/04/05 03:40:37;;;;;;;0.30;0.10;;;4.00;99.90;;;;;;5063658;28;20452;-84
2022/04/05 03:43:07;;;;;;;0.30;0.10;;;4.00;99.90;;;;;;5074443;28;20528;-84
2022/04/05 03:45:34;;;;;;;0.30;0.10;;;4.00;99.90;;;;;;5064588;28;20899;-86
2022/04/05 03:48:01;;;;;;;0.30;0.10;;;4.10;99.90;;;;;;5065131;28;20493;-84
2022/04/05 03:50:28;;;;;;;0.30;0.10;;;4.10;99.90;;;;;;5070854;28;20547;-84
2022/04/05 03:52:57;;;;;;;0.30;0.20;;;4.10;99.90;;;;;;5066354;28;20926;-84
2022/04/05 03:55:25;;;;;;;0.30;0.20;;;4.10;99.90;;;;;;5065345;28;20467;-84
2022/04/05 03:57:52;;;;;;;0.30;0.10;;;4.10;99.90;;;;;;5066582;28;20460;-84
2022/04/05 04:00:20;;;;;;;0.30;0.10;;;4.10;99.90;;;;;;5065154;28;20938;-84
2022/04/05 04:02:47;;;;;;;0.60;0.40;;;4.00;99.90;;;;;;5069431;28;20480;-86
2022/04/05 04:05:19;;;;;;;0.30;0.10;;;4.10;99.90;;;;;;5063243;28;20478;-84
2022/04/05 04:07:46;;;;;;;0.40;0.30;;;4.10;99.90;;;;;;5068022;28;20541;-85
2022/04/05 04:10:13;;;;;;;0.30;0.10;;;4.10;99.90;;;;;;5057445;28;20544;-84
2022/04/05 04:12:40;;;;;;;0.30;0.10;;;4.10;99.90;;;;;;5062824;28;20444;-86
2022/04/05 04:15:08;;;;;;;0.30;0.10;;;4.10;99.90;;;;;;5058065;28;20468;-88
2022/04/05 04:17:36;;;;;;;0.30;0.10;;;4.00;99.90;;;;;;5061006;28;20509;-85
2022/04/05 04:20:04;;;;;;;0.33;0.23;;;4.00;99.90;;;;;;5056865;28;21034;-85
2022/04/05 04:22:31;;;;;;;0.97;0.90;;;4.00;99.90;;;;;;5069938;28;20523;-86
2022/04/05 04:24:58;;;;;;;0.87;0.47;;;4.00;99.90;;;;;;5061516;28;20467;-86
2022/04/05 04:27:26;;;;;;;0.40;0.30;;;4.00;99.90;;;;;;5054196;28;20905;-84
2022/04/05 04:29:53;;;;;;;0.40;0.30;;;4.00;99.90;;;;;;5068132;28;20464;-85
2022/04/05 04:32:20;;;;;;;0.40;0.30;;;4.00;99.90;;;;;;5069413;28;20455;-86
2022/04/05 04:34:49;;;;;;;0.30;0.10;;;4.00;99.90;;;;;;5058790;28;20460;-85
2022/04/05 04:37:16;;;;;;;0.30;0.10;;;4.10;99.90;;;;;;5071598;28;20456;-85
2022/04/05 04:39:44;;;;;;;0.30;0.10;;;4.10;99.90;;;;;;5079569;28;20452;-83
2022/04/05 04:42:12;;;;;;;0.30;0.10;;;4.10;99.90;;;;;;5068355;28;20456;-87
2022/04/05 04:44:39;;;;;;;0.30;0.10;;;4.10;99.90;;;;;;5050166;28;20494;-84
2022/04/05 04:47:07;;;;;;;0.30;0.10;;;4.20;99.90;;;;;;5064301;28;20464;-87
2022/04/05 04:49:34;;;;;;;1.83;0.60;;;4.20;99.90;;;;;;5064022;28;20461;-85
2022/04/05 04:52:03;;;;;;;0.30;0.20;;;4.20;99.90;;;;;;5060458;28;20459;-86
2022/04/05 04:54:30;;;;;;;1.17;0.30;;;4.20;99.90;;;;;;5051752;28;20461;-84
2022/04/05 04:56:57;;;;;;;1.50;1.50;;;4.30;99.90;;;;;;5063097;28;20448;-85
2022/04/05 04:59:24;;;;;;;0.30;0.10;;;4.30;99.90;;;;;;5060100;28;20471;-86
2022/04/05 05:01:51;;;;;;;0.30;0.20;;;4.30;99.90;;;;;;5057695;28;20456;-85
2022/04/05 05:04:18;;;;;;;0.40;0.20;;;4.40;99.90;;;;;;5059992;28;20495;-84
2022/04/05 05:06:45;;;;;;;2.00;0.50;;;4.40;99.90;;;;;;5044695;28;20932;-86
2022/04/05 05:09:14;;;;;;;0.30;0.10;;;4.50;99.90;;;;;;5059545;28;20464;-84
2022/04/05 05:11:41;;;;;;;0.30;0.10;;;4.50;99.90;;;;;;5044217;28;20460;-83
2022/04/05 05:14:08;;;;;;;0.30;0.10;;;4.60;99.90;;;;;;5050341;28;20526;-83
2022/04/05 05:16:35;;;;;;;0.30;0.10;;;4.60;99.90;;;;;;5048104;28;20461;-84
2022/04/05 05:19:02;;;;;;;0.47;0.40;;;4.70;99.90;;;;;;5043120;28;20522;-84
2022/04/05 05:21:29;;;;;;;0.30;0.10;;;4.70;99.90;;;;;;5030713;28;20470;-84
2022/04/05 05:23:56;;;;;;;0.30;0.20;;;4.70;99.90;;;;;;5030241;28;20547;-87
2022/04/05 05:26:24;;;;;;;0.30;0.20;;;4.80;99.90;;;;;;5054772;28;20468;-87
2022/04/05 05:28:51;;;;;;;0.30;0.10;;;4.80;99.90;;;;;;5051596;28;20461;-82
2022/04/05 05:31:18;;;;;;;0.30;0.13;;;4.90;99.90;;;;;;5056559;28;20444;-84
2022/04/05 05:33:45;;;;;;;0.60;0.40;;;4.90;99.90;;;;;;5049819;28;20823;-84
2022/04/05 05:36:13;;;;;;;0.30;0.20;;;4.90;99.90;;;;;;5049383;28;20518;-86
2022/04/05 05:38:39;;;;;;;0.30;0.30;;;4.90;99.90;;;;;;5049238;28;20461;-84
2022/04/05 05:41:06;;;;;;;0.30;0.20;;;4.90;99.90;;;;;;5064232;28;20460;-86
2022/04/05 05:43:36;;;;;;;0.30;0.20;;;5.00;99.90;;;;;;5068696;28;20484;-86
2022/04/05 05:46:04;;;;;;;0.30;0.20;;;5.00;99.90;;;;;;5064063;28;20452;-87
2022/04/05 05:48:31;;;;;;;0.77;0.77;;;5.00;99.90;;;;;;5042656;28;20458;-83
2022/04/05 05:50:59;;;;;;;0.40;0.30;;;5.00;99.90;;;;;;5039607;28;20531;-83
2022/04/05 05:53:27;;;;;;;0.30;0.10;;;5.10;99.90;;;;;;5049215;28;20538;-83
2022/04/05 05:55:55;;;;;;;0.30;0.30;;;5.10;99.90;;;;;;5057853;28;20552;-83
2022/04/05 05:58:22;;;;;;;0.30;0.20;;;5.10;99.90;;;;;;5057923;28;20463;-84
2022/04/05 06:00:50;;;;;;;0.30;0.10;;;5.10;99.90;;;;;;5051941;28;20521;-83
2022/04/05 06:03:17;;;;;;;0.30;0.20;;;5.20;99.90;;;;;;5066632;28;20541;-83
2022/04/05 06:05:46;;;;;;;0.30;0.10;;;5.20;99.90;;;;;;5047803;28;20522;-85
2022/04/05 06:08:13;;;;;;;0.30;0.10;;;5.20;99.90;;;;;;5052737;28;20459;-83
2022/04/05 06:10:41;;;;;;;0.30;0.13;;;5.30;99.90;;;;;;5055547;28;20486;-82
2022/04/05 06:13:08;;;;;;;0.30;0.10;;;5.30;99.90;;;;;;5054768;28;20467;-83
2022/04/05 06:15:35;;;;;;;0.30;0.10;;;5.20;99.90;;;;;;5062304;28;20518;-83
2022/04/05 06:18:04;;;;;;;0.30;0.20;;;5.20;99.90;;;;;;5044693;28;20936;-83
2022/04/05 06:20:31;;;;;;;0.40;0.20;;;5.20;99.90;;;;;;5048031;28;20488;-83
2022/04/05 06:23:00;;;;;;;0.30;0.10;;;5.20;99.90;;;;;;5039233;28;20461;-84
2022/04/05 06:25:28;;;;;;;0.30;0.20;;;5.20;99.90;;;;;;5054304;28;20564;-83
2022/04/05 06:27:56;;;;;;;0.30;0.10;;;5.20;99.90;;;;;;5034014;28;20449;-83
2022/04/05 06:30:24;;;;;;;0.30;0.20;;;5.10;99.90;;;;;;5028924;28;20500;-83
2022/04/05 06:32:51;;;;;;;0.30;0.10;;;5.10;99.90;;;;;;5041337;28;20506;-82
2022/04/05 06:35:20;;;;;;;0.30;0.20;;;5.10;99.90;;;;;;5047383;28;20546;-83
2022/04/05 06:37:47;;;;;;;0.30;0.10;;;5.10;99.90;;;;;;5047680;28;20809;-87
2022/04/05 06:40:16;;;;;;;0.30;0.30;;;5.20;99.90;;;;;;5046977;28;20509;-85
2022/04/05 06:42:44;;;;;;;0.30;0.10;;;5.10;99.90;;;;;;5050803;28;20445;-87
2022/04/05 06:45:13;;;;;;;0.30;0.10;;;5.20;99.90;;;;;;5042475;28;20480;-84
2022/04/05 06:47:40;;;;;;;0.30;0.10;;;5.20;99.90;;;;;;5047006;28;20459;-85
2022/04/05 06:50:09;;;;;;;1.07;0.97;;;5.30;99.90;;;;;;5046340;28;20460;-85
2022/04/05 06:52:39;;;;;;;0.30;0.10;;;5.40;99.90;;;;;;5048699;28;20873;-85
2022/04/05 06:55:09;;;;;;;0.30;0.10;;;5.50;99.90;;;;;;5047402;28;20456;-83
2022/04/05 06:57:37;;;;;;;0.30;0.10;;;5.50;99.90;;;;;;5037106;28;20449;-83
2022/04/05 07:00:06;;;;;;;0.70;0.70;;;5.60;99.90;;;;;;5040695;28;21110;-84
2022/04/05 07:02:34;;;;;;;0.30;0.20;;;5.50;99.90;;;;;;5048734;28;20465;-82
2022/04/05 07:05:01;;;;;;;0.40;0.20;;;5.50;99.90;;;;;;5037011;28;21416;-82
2022/04/05 07:07:28;;;;;;;0.30;0.20;;;5.50;99.90;;;;;;5042973;28;20457;-83
2022/04/05 07:09:57;;;;;;;1.60;0.30;;;5.40;99.90;;;;;;5043875;28;20460;-82
2022/04/05 07:12:24;;;;;;;0.30;0.10;;;5.50;99.90;;;;;;5055264;28;20446;-84
2022/04/05 07:14:51;;;;;;;0.30;0.20;;;5.50;99.90;;;;;;5074543;28;20635;-82
2022/04/05 07:17:18;;;;;;;0.30;0.10;;;5.50;99.90;;;;;;5059557;28;20465;-83
2022/04/05 07:19:45;;;;;;;0.60;0.60;;;5.60;99.90;;;;;;5044977;28;20485;-84
2022/04/05 07:22:12;;;;;;;0.40;0.40;;;5.70;99.90;;;;;;5049447;28;20984;-84
2022/04/05 07:24:39;;;;;;;0.30;0.20;;;5.70;99.90;;;;;;5054307;28;20545;-85
2022/04/05 07:27:08;;;;;;;0.30;0.10;;;5.60;99.90;;;;;;5064401;28;20456;-83
2022/04/05 07:29:35;;;;;;;1.40;1.30;;;5.60;99.90;;;;;;5045441;28;20465;-85
2022/04/05 07:32:02;;;;;;;1.57;1.30;;;5.70;99.90;;;;;;5052317;28;20861;-85
2022/04/05 07:34:29;;;;;;;0.30;0.10;;;5.60;99.90;;;;;;5051737;28;20459;-94
2022/04/05 07:36:56;;;;;;;0.30;0.20;;;5.60;99.90;;;;;;5051694;28;20670;-83
2022/04/05 07:39:23;;;;;;;0.30;0.10;;;5.80;99.90;;;;;;5053998;28;20448;-88
2022/04/05 07:41:51;;;;;;;1.77;1.67;;;5.80;99.90;;;;;;5071490;28;20528;-84
2022/04/05 07:44:19;;;;;;;0.30;0.10;;;5.60;99.90;;;;;;5052462;28;20606;-84
2022/04/05 07:46:46;;;;;;;0.30;0.10;;;5.50;99.90;;;;;;5042135;28;20828;-84
2022/04/05 07:49:14;;;;;;;0.30;0.10;;;5.60;99.90;;;;;;5052221;28;20432;-83
2022/04/05 07:51:41;;;;;;;0.30;0.20;;;5.60;99.90;;;;;;5052074;28;20437;-88
2022/04/05 07:54:08;;;;;;;0.30;0.10;;;5.60;99.90;;;;;;5049575;28;20465;-88
2022/04/05 07:56:35;;;;;;;0.30;0.20;;;5.50;99.90;;;;;;5049532;28;20460;-84
2022/04/05 07:59:02;;;;;;;0.73;0.73;;;5.60;99.90;;;;;;5052357;28;20448;-85
2022/04/05 08:01:30;;;;;;;0.30;0.20;;;5.50;99.90;;;;;;5051464;28;20447;-84
2022/04/05 08:03:57;;;;;;;0.30;0.20;;;5.50;99.90;;;;;;5051116;28;20449;-85
2022/04/05 08:06:27;;;;;;;0.30;0.20;;;5.60;99.90;;;;;;5059207;28;20459;-83
2022/04/05 08:08:54;;;;;;;0.30;0.20;;;5.60;99.90;;;;;;5064437;28;20467;-84
2022/04/05 08:11:21;;;;;;;1.07;0.50;;;5.70;99.90;;;;;;5071441;28;20448;-84
2022/04/05 08:13:48;;;;;;;0.30;0.20;;;5.80;99.90;;;;;;5063878;28;20448;-84
2022/04/05 08:16:15;;;;;;;0.87;0.87;;;5.80;99.90;;;;;;5067019;28;20534;-85
2022/04/05 08:18:43;;;;;;;0.30;0.20;;;5.60;99.90;;;;;;5067546;28;20505;-84
2022/04/05 08:21:10;;;;;;;0.30;0.10;;;5.60;99.90;;;;;;5068787;28;20953;-84
2022/04/05 08:23:38;;;;;;;0.67;0.40;;;5.60;99.90;;;;;;5056551;28;20460;-83
2022/04/05 08:26:05;;;;;;;0.30;0.10;;;5.60;99.90;;;;;;5070486;28;20568;-83
2022/04/05 08:28:32;;;;;;;0.30;0.10;;;5.60;99.90;;;;;;5067411;28;20941;-83
2022/04/05 08:30:59;;;;;;;0.30;0.20;;;5.70;99.90;;;;;;5068941;28;20448;-83
2022/04/05 08:33:27;;;;;;;0.30;0.20;;;5.70;99.90;;;;;;5056825;28;20497;-84
2022/04/05 08:35:55;;;;;;;0.30;0.10;;;5.80;99.90;;;;;;5044772;28;20466;-83
2022/04/05 08:38:23;;;;;;;0.30;0.10;;;5.90;99.90;;;;;;5050693;28;20868;-84
2022/04/05 08:40:50;;;;;;;0.30;0.20;;;6.00;99.90;;;;;;5060839;28;20456;-84
2022/04/05 08:43:17;;;;;;;0.30;0.20;;;6.40;99.90;;;;;;5063534;28;20461;-83
2022/04/05 08:45:50;;;;;;;1.07;1.07;;;6.60;99.90;;;;;;5045322;28;20527;-84
2022/04/05 08:48:26;;;;;;;1.37;0.37;;;6.90;99.90;;;;;;5047650;28;20454;-85
2022/04/05 08:50:55;;;;;;;0.30;0.10;;;7.10;99.90;;;;;;5031962;28;20590;-84
2022/04/05 08:53:22;;;;;;;0.53;0.53;;;7.10;99.90;;;;;;5042309;28;20903;-84
2022/04/05 08:55:51;;;;;;;0.40;0.20;;;7.30;99.90;;;;;;5060013;28;20452;-84
2022/04/05 08:58:18;;;;;;;0.30;0.20;;;7.20;99.90;;;;;;5049418;28;20465;-83
2022/04/05 09:00:45;;;;;;;0.30;0.10;;;6.90;99.90;;;;;;5050458;28;21057;-84
2022/04/05 09:03:12;;;;;;;0.30;0.10;;;6.90;99.90;;;;;;5038447;28;20503;-84
2022/04/05 09:05:43;;;;;;;0.30;0.10;;;6.90;99.90;;;;;;5031889;28;20573;-87
2022/04/05 09:08:17;;;;;;;0.63;0.57;;;7.20;99.90;;;;;;5054892;28;20534;-86
2022/04/05 09:10:46;;;;;;;0.30;0.10;;;7.50;99.90;;;;;;5048975;28;20445;-85
2022/04/05 09:13:20;;;;;;;0.30;0.10;;;7.50;99.90;;;;;;5050923;28;20440;-85
2022/04/05 09:15:50;;;;;;;0.30;0.10;;;7.60;99.90;;;;;;5049696;28;20487;-84
2022/04/05 09:18:28;;;;;;;0.40;0.40;;;7.60;99.90;;;;;;5050351;28;20449;-82
2022/04/05 09:20:55;;;;;;;0.87;0.40;;;7.30;99.90;;;;;;5051707;28;20526;-84
2022/04/05 09:23:33;;;;;;;0.30;0.20;;;7.50;99.90;;;;;;5067487;28;20466;-84
2022/04/05 09:26:01;;;;;;;0.30;0.10;;;7.20;99.90;;;;;;5050442;28;20494;-84
2022/04/05 09:28:34;;;;;;;0.30;0.10;;;7.50;99.90;;;;;;5053862;28;20436;-88
2022/04/05 09:31:03;;;;;;;0.30;0.10;;;7.50;99.90;;;;;;5048940;28;20461;-88
2022/04/05 09:33:32;;;;;;;0.30;0.10;;;7.40;99.90;;;;;;5049547;28;20469;-84
2022/04/05 09:36:08;;;;;;;0.30;0.10;;;7.40;99.90;;;;;;5050067;28;20506;-88
2022/04/05 09:38:38;;;;;;;0.30;0.10;;;7.80;99.90;;;;;;5050374;28;20455;-87
2022/04/05 09:41:17;;;;;;;0.30;0.10;;;7.90;99.90;;;;;;5057152;28;20908;-84
2022/04/05 09:43:56;;;;;;;0.40;0.30;;;7.80;99.90;;;;;;5068082;28;20553;-84
2022/04/05 09:46:23;;;;;;;0.30;0.10;;;7.90;99.90;;;;;;5048164;28;20807;-84
2022/04/05 09:49:06;;;;;;;0.30;0.10;;;8.00;99.90;;;;;;5056225;28;20453;-84
2022/04/05 09:51:51;;;;;;;0.30;0.10;;;7.80;99.90;;;;;;5057632;28;20883;-85
2022/04/05 09:54:27;;;;;;;0.30;0.10;;;7.60;99.90;;;;;;5060873;28;20484;-84
2022/04/05 09:57:00;;;;;;;0.30;0.10;;;7.50;99.90;;;;;;5067438;28;20451;-84
2022/04/05 09:59:38;;;;;;;0.30;0.10;;;7.60;99.90;;;;;;5062582;28;20544;-85
2022/04/05 10:02:11;;;;;;;0.30;0.10;;;7.50;99.90;;;;;;5065718;28;20480;-84
2022/04/05 10:04:59;;;;;;;0.30;0.20;;;7.50;99.90;;;;;;5058989;28;20487;-88
2022/04/05 10:07:28;;;;;;;0.63;0.63;;;7.50;99.90;;;;;;5046614;28;20539;-85
2022/04/05 10:09:58;;;;;;;0.30;0.10;;;7.40;99.90;;;;;;5036827;28;20440;-83
2022/04/05 10:12:25;;;;;;;0.40;0.30;;;7.50;99.90;;;;;;5049193;28;20475;-84
2022/04/05 10:14:53;;;;;;;0.30;0.10;;;7.70;99.90;;;;;;5049384;28;20507;-86
2022/04/05 10:17:21;;;;;;;0.30;0.10;;;7.80;99.90;;;;;;5054916;28;20878;-88
2022/04/05 10:19:50;;;;;;;0.30;0.10;;;7.80;99.90;;;;;;5068982;28;20482;-89
2022/04/05 10:22:19;;;;;;;0.30;0.10;;;7.80;99.90;;;;;;5049288;28;20523;-86
2022/04/05 10:24:46;;;;;;;0.30;0.10;;;8.00;99.90;;;;;;5048738;28;20503;-85
2022/04/05 10:27:16;;;;;;;0.30;0.10;;;7.90;99.90;;;;;;5048436;28;20887;-88
2022/04/05 10:29:45;;;;;;;0.30;0.10;;;7.80;99.90;;;;;;5049543;28;20448;-85
2022/04/05 10:32:31;;;;;;;0.30;0.10;;;8.00;99.90;;;;;;5068024;28;20467;-86
2022/04/05 10:35:06;;;;;;;0.40;0.20;;;8.20;99.90;;;;;;5037770;28;20534;-84
2022/04/05 10:37:35;;;;;;;0.30;0.20;;;8.20;99.90;;;;;;5049209;28;20459;-85
2022/04/05 10:40:15;;;;;;;0.30;0.10;;;8.10;99.90;;;;;;5059968;28;20451;-85
2022/04/05 10:42:46;;;;;;;0.30;0.10;;;8.30;99.90;;;;;;5065355;28;20487;-85
2022/04/05 10:45:15;;;;;;;0.30;0.20;;;8.20;99.90;;;;;;5067547;28;20494;-84
2022/04/05 10:48:09;;;;;;;0.30;0.17;;;8.40;99.90;;;;;;5063613;28;20443;-88
2022/04/05 10:50:36;;;;;;;1.40;0.40;;;8.50;99.90;;;;;;5059266;28;20521;-86
2022/04/05 10:53:18;;;;;;;1.43;0.40;;;8.40;99.90;;;;;;5062297;28;20440;-85
2022/04/05 10:56:14;;;;;;;0.30;0.10;;;8.40;99.90;;;;;;5066612;28;20454;-85
2022/04/05 10:58:58;;;;;;;0.30;0.10;;;8.40;99.90;;;;;;5067103;28;20440;-88
2022/04/05 11:01:37;;;;;;;0.30;0.10;;;8.40;99.90;;;;;;5057412;28;20849;-85
2022/04/05 11:04:37;;;;;;;0.30;0.20;;;8.30;99.90;;;;;;5068351;28;20549;-86
2022/04/05 11:07:11;;;;;;;0.30;0.20;;;8.20;99.90;;;;;;5021404;28;20529;-87
2022/04/05 11:09:50;;;;;;;0.30;0.20;;;8.10;99.90;;;;;;5009077;28;21061;-86
2022/04/05 11:12:23;;;;;;;0.30;0.17;;;8.00;99.90;;;;;;5028450;28;20520;-86
2022/04/05 11:14:56;;;;;;;0.30;0.17;;;8.00;99.90;;;;;;5049307;28;20901;-87
2022/04/05 11:17:26;;;;;;;0.30;0.20;;;8.10;99.90;;;;;;5051373;28;20511;-86
2022/04/05 11:19:55;;;;;;;0.30;0.10;;;8.10;99.90;;;;;;5052515;28;21027;-86
2022/04/05 11:22:34;;;;;;;0.30;0.20;;;8.00;99.90;;;;;;5060529;28;20450;-87
2022/04/05 11:25:04;;;;;;;0.30;0.20;;;8.10;99.90;;;;;;5054995;28;20542;-86
2022/04/05 11:27:38;;;;;;;0.30;0.10;;;8.00;99.90;;;;;;5061439;28;20502;-86
2022/04/05 11:30:54;;;;;;;0.30;0.20;;;8.00;99.90;;;;;;5057542;28;20454;-87
2022/04/05 11:33:41;;;;;;;0.30;0.10;;;8.00;99.90;;;;;;5020160;28;20488;-87
2022/04/05 11:36:09;;;;;;;0.30;0.10;;;8.20;99.90;;;;;;5062515;28;20538;-90
2022/04/05 11:38:38;;;;;;;0.30;0.10;;;8.30;99.90;;;;;;5068211;28;20800;-86
2022/04/05 11:41:09;;;;;;;0.30;0.20;;;8.30;99.90;;;;;;5058114;28;20563;-86
2022/04/05 11:43:39;;;;;;;0.63;0.63;;;8.30;99.90;;;;;;5050659;28;21061;-86
2022/04/05 11:46:09;;;;;;;0.30;0.10;;;8.40;99.90;;;;;;5056091;28;20487;-85
2022/04/05 11:48:42;;;;;;;0.30;0.10;;;8.60;99.90;;;;;;5063960;28;20965;-86
2022/04/05 11:51:11;;;;;;;0.30;0.10;;;8.70;99.90;;;;;;5053075;28;20512;-86
2022/04/05 11:53:39;;;;;;;0.30;0.10;;;8.70;99.90;;;;;;5060093;28;20466;-85
2022/04/05 11:56:13;;;;;;;0.30;0.10;;;8.70;99.90;;;;;;5063678;28;20494;-87
2022/04/05 11:58:42;;;;;;;0.30;0.10;;;8.80;99.90;;;;;;5049715;28;20503;-86
2022/04/05 12:01:11;;;;;;;0.30;0.20;;;8.90;99.90;;;;;;5059509;28;20991;-86
2022/04/05 12:03:43;;;;;;;0.30;0.10;;;9.00;99.90;;;;;;5063495;28;20878;-85
2022/04/05 12:06:10;;;;;;;0.30;0.20;;;9.00;99.90;;;;;;5062727;28;20476;-88
2022/04/05 12:08:38;;;;;;;0.30;0.10;;;8.90;99.90;;;;;;5058443;28;20514;-87
2022/04/05 12:11:06;;;;;;;0.30;0.10;;;8.90;99.90;;;;;;5062578;28;20869;-89
2022/04/05 12:13:35;;;;;;;0.30;0.10;;;8.80;99.90;;;;;;5064157;28;20907;-86
2022/04/05 12:16:05;;;;;;;2.23;1.27;;;8.80;99.90;;;;;;5060702;28;20478;-86
2022/04/05 12:18:32;;;;;;;0.30;0.10;;;9.00;99.90;;;;;;5057338;28;20455;-86
2022/04/05 12:21:03;;;;;;;0.30;0.20;;;9.00;99.90;;;;;;5055667;28;20487;-89
2022/04/05 12:23:32;;;;;;;0.30;0.10;;;9.00;99.90;;;;;;5050712;28;20461;-89
2022/04/05 12:26:06;;;;;;;0.40;0.30;;;9.00;99.90;;;;;;5061436;28;20638;-87
2022/04/05 12:28:34;;;;;;;0.30;0.20;;;9.00;99.90;;;;;;5061643;28;20455;-84
2022/04/05 12:31:09;;;;;;;0.30;0.20;;;9.00;99.90;;;;;;5069632;28;20460;-87
2022/04/05 12:33:37;;;;;;;0.30;0.20;;;9.00;99.90;;;;;;5064596;28;20448;-85
2022/04/05 12:36:07;;;;;;;0.30;0.20;;;8.80;99.90;;;;;;5064531;28;20462;-85
2022/04/05 12:38:34;;;;;;;0.30;0.10;;;8.80;99.90;;;;;;5056359;28;20460;-85
2022/04/05 12:41:03;;;;;;;0.30;0.10;;;8.60;99.90;;;;;;5058153;28;20481;-84
2022/04/05 12:43:30;;;;;;;0.50;0.30;;;8.60;99.90;;;;;;5062556;28;20860;-86
2022/04/05 12:46:08;;;;;;;0.60;0.50;;;8.60;99.90;;;;;;5053337;28;20476;-88
2022/04/05 12:48:35;;;;;;;0.30;0.20;;;8.50;99.90;;;;;;5061350;28;20479;-85
2022/04/05 12:51:02;;;;;;;0.30;0.10;;;8.40;99.90;;;;;;5053979;28;20510;-88
2022/04/05 12:53:35;;;;;;;0.30;0.10;;;8.40;99.90;;;;;;5059144;28;20941;-88
2022/04/05 12:56:08;;;;;;;0.30;0.10;;;8.30;99.90;;;;;;5058413;28;20475;-85
2022/04/05 12:58:40;;;;;;;0.57;0.57;;;8.30;99.90;;;;;;5053836;28;20464;-88
2022/04/05 13:01:18;;;;;;;0.33;0.20;;;8.30;99.90;;;;;;5053603;28;20442;-85
2022/04/05 13:03:46;;;;;;;0.43;0.40;;;8.30;99.90;;;;;;5036184;28;20513;-84
2022/04/05 13:06:22;;;;;;;0.30;0.10;;;8.20;99.90;;;;;;5056594;28;20533;-84
2022/04/05 13:08:53;;;;;;;0.30;0.10;;;8.20;99.90;;;;;;5060706;28;20451;-84